Forest Hill, West Virginia
Current Conditions -  °F | °C
As of 4:42 AM on Thursday 27 Nov 2014 (Local Time) from KBKW Reporting Station
Light Snow Light Snow  
Wind Chill: 32°   Ceiling: 300
Heat Index: 32°   Visibility: 0.5mi
Dew Point: 30°   Wind: 0mph
Humidity: 92%   Direction: NA
Pressure: 29.94"   Gusts: NA
Location:  37.56°N, 80.81°W
Report Text: KBKW 270942Z AUTO 00000KT 1/2SM -SN FG VV003 00/M01 A2994 RMK AO2 SNE16B27 P0000 T00001011
Loading
Personal Weather Stations






























Interactive Weather Map New forecast layout! Learn more

10-Day Weather Forecast

Advertisements
Track Severe Weather on mobile